sensor_id;sensor_type;location;lat;lon;timestamp;temperature;humidity
51867;DHT22;52862;52.504;13.480;2023-02-01T00:01:55;5.20;99.90
51867;DHT22;52862;52.504;13.480;2023-02-01T00:04:22;5.30;99.90
51867;DHT22;52862;52.504;13.480;2023-02-01T00:06:48;5.50;99.90
51867;DHT22;52862;52.504;13.480;2023-02-01T00:09:15;5.60;99.90
51867;DHT22;52862;52.504;13.480;2023-02-01T00:11:42;5.60;99.90
51867;DHT22;52862;52.504;13.480;2023-02-01T00:14:08;5.30;99.90
51867;DHT22;52862;52.504;13.480;2023-02-01T00:16:36;4.70;99.90
51867;DHT22;52862;52.504;13.480;2023-02-01T00:19:05;5.20;99.90
51867;DHT22;52862;52.504;13.480;2023-02-01T00:21:32;5.20;99.90
51867;DHT22;52862;52.504;13.480;2023-02-01T00:23:59;4.90;99.90
51867;DHT22;52862;52.504;13.480;2023-02-01T00:26:30;5.10;99.90
51867;DHT22;52862;52.504;13.480;2023-02-01T00:28:58;5.30;99.90
51867;DHT22;52862;52.504;13.480;2023-02-01T00:31:25;5.20;99.90
51867;DHT22;52862;52.504;13.480;2023-02-01T00:33:55;5.30;99.90
51867;DHT22;52862;52.504;13.480;2023-02-01T00:36:22;5.20;99.90
51867;DHT22;52862;52.504;13.480;2023-02-01T00:38:49;5.40;99.90
51867;DHT22;52862;52.504;13.480;2023-02-01T00:41:17;5.50;99.90
51867;DHT22;52862;52.504;13.480;2023-02-01T00:43:45;4.70;99.90
51867;DHT22;52862;52.504;13.480;2023-02-01T00:46:13;5.20;99.90
51867;DHT22;52862;52.504;13.480;2023-02-01T00:48:40;5.40;99.90
51867;DHT22;52862;52.504;13.480;2023-02-01T00:51:11;5.30;99.90
51867;DHT22;52862;52.504;13.480;2023-02-01T00:53:38;5.30;99.90
51867;DHT22;52862;52.504;13.480;2023-02-01T00:56:05;5.20;99.90
51867;DHT22;52862;52.504;13.480;2023-02-01T00:58:33;5.40;99.90
51867;DHT22;52862;52.504;13.480;2023-02-01T01:01:07;5.10;99.90
51867;DHT22;52862;52.504;13.480;2023-02-01T01:03:38;5.00;99.90
51867;DHT22;52862;52.504;13.480;2023-02-01T01:06:17;3.60;99.90
51867;DHT22;52862;52.504;13.480;2023-02-01T01:08:45;5.30;99.90
51867;DHT22;52862;52.504;13.480;2023-02-01T01:11:14;5.30;99.90
51867;DHT22;52862;52.504;13.480;2023-02-01T01:13:42;5.00;99.90
51867;DHT22;52862;52.504;13.480;2023-02-01T01:16:09;4.80;99.90
51867;DHT22;52862;52.504;13.480;2023-02-01T01:18:37;5.00;99.90
51867;DHT22;52862;52.504;13.480;2023-02-01T01:21:04;4.90;99.90
51867;DHT22;52862;52.504;13.480;2023-02-01T01:23:32;5.00;99.90
51867;DHT22;52862;52.504;13.480;2023-02-01T01:26:00;4.70;99.90
51867;DHT22;52862;52.504;13.480;2023-02-01T01:28:26;4.90;99.90
51867;DHT22;52862;52.504;13.480;2023-02-01T01:30:53;4.70;99.90
51867;DHT22;52862;52.504;13.480;2023-02-01T01:33:20;5.10;99.90
51867;DHT22;52862;52.504;13.480;2023-02-01T01:35:47;4.90;99.90
51867;DHT22;52862;52.504;13.480;2023-02-01T01:38:13;4.80;99.90
51867;DHT22;52862;52.504;13.480;2023-02-01T01:40:44;6.70;99.90
51867;DHT22;52862;52.504;13.480;2023-02-01T01:43:14;4.80;99.90
51867;DHT22;52862;52.504;13.480;2023-02-01T01:48:12;4.80;99.90
51867;DHT22;52862;52.504;13.480;2023-02-01T01:50:42;4.90;99.90
51867;DHT22;52862;52.504;13.480;2023-02-01T01:53:14;4.90;99.90
51867;DHT22;52862;52.504;13.480;2023-02-01T01:55:44;4.90;99.90
51867;DHT22;52862;52.504;13.480;2023-02-01T01:58:14;4.90;99.90
51867;DHT22;52862;52.504;13.480;2023-02-01T02:00:42;5.00;99.90
51867;DHT22;52862;52.504;13.480;2023-02-01T02:03:14;5.00;99.90
51867;DHT22;52862;52.504;13.480;2023-02-01T02:05:44;5.10;99.90
51867;DHT22;52862;52.504;13.480;2023-02-01T02:08:11;5.00;99.90
51867;DHT22;52862;52.504;13.480;2023-02-01T02:10:38;5.10;99.90
51867;DHT22;52862;52.504;13.480;2023-02-01T02:13:24;5.10;99.90
51867;DHT22;52862;52.504;13.480;2023-02-01T02:18:44;5.10;99.90
51867;DHT22;52862;52.504;13.480;2023-02-01T02:21:17;5.10;99.90
51867;DHT22;52862;52.504;13.480;2023-02-01T02:27:04;5.20;99.90
51867;DHT22;52862;52.504;13.480;2023-02-01T02:33:23;4.80;99.90
51867;DHT22;52862;52.504;13.480;2023-02-01T02:35:59;5.20;99.90
51867;DHT22;52862;52.504;13.480;2023-02-01T02:38:31;5.30;99.90
51867;DHT22;52862;52.504;13.480;2023-02-01T02:41:11;4.80;99.90
51867;DHT22;52862;52.504;13.480;2023-02-01T02:44:01;5.10;99.90
51867;DHT22;52862;52.504;13.480;2023-02-01T02:46:52;5.10;99.90
51867;DHT22;52862;52.504;13.480;2023-02-01T02:49:43;5.10;99.90
51867;DHT22;52862;52.504;13.480;2023-02-01T02:52:40;5.20;99.90
51867;DHT22;52862;52.504;13.480;2023-02-01T02:55:27;5.10;99.90
51867;DHT22;52862;52.504;13.480;2023-02-01T02:57:56;5.20;99.90
51867;DHT22;52862;52.504;13.480;2023-02-01T03:00:42;5.10;99.90
51867;DHT22;52862;52.504;13.480;2023-02-01T03:03:27;5.20;99.90
51867;DHT22;52862;52.504;13.480;2023-02-01T03:06:14;5.30;99.90
51867;DHT22;52862;52.504;13.480;2023-02-01T03:08:42;5.10;99.90
51867;DHT22;52862;52.504;13.480;2023-02-01T03:11:13;5.10;99.90
51867;DHT22;52862;52.504;13.480;2023-02-01T03:13:44;5.00;99.90
51867;DHT22;52862;52.504;13.480;2023-02-01T03:16:15;4.70;99.90
51867;DHT22;52862;52.504;13.480;2023-02-01T03:18:49;5.20;99.90
51867;DHT22;52862;52.504;13.480;2023-02-01T03:21:21;5.10;99.90
51867;DHT22;52862;52.504;13.480;2023-02-01T03:23:50;5.00;99.90
51867;DHT22;52862;52.504;13.480;2023-02-01T03:26:20;5.20;99.90
51867;DHT22;52862;52.504;13.480;2023-02-01T03:28:53;5.10;99.90
51867;DHT22;52862;52.504;13.480;2023-02-01T03:31:21;5.20;99.90
51867;DHT22;52862;52.504;13.480;2023-02-01T03:33:49;5.10;99.90
51867;DHT22;52862;52.504;13.480;2023-02-01T03:36:25;5.40;99.90
51867;DHT22;52862;52.504;13.480;2023-02-01T03:38:57;5.40;99.90
51867;DHT22;52862;52.504;13.480;2023-02-01T03:41:28;5.20;99.90
51867;DHT22;52862;52.504;13.480;2023-02-01T03:44:03;5.20;99.90
51867;DHT22;52862;52.504;13.480;2023-02-01T03:46:33;5.20;99.90
51867;DHT22;52862;52.504;13.480;2023-02-01T03:49:03;4.90;99.90
51867;DHT22;52862;52.504;13.480;2023-02-01T03:51:32;4.80;99.90
51867;DHT22;52862;52.504;13.480;2023-02-01T03:54:02;5.10;99.90
51867;DHT22;52862;52.504;13.480;2023-02-01T03:56:30;5.30;99.90
51867;DHT22;52862;52.504;13.480;2023-02-01T03:58:57;5.00;99.90
51867;DHT22;52862;52.504;13.480;2023-02-01T04:01:26;5.10;99.90
51867;DHT22;52862;52.504;13.480;2023-02-01T04:03:53;5.20;99.90
51867;DHT22;52862;52.504;13.480;2023-02-01T04:06:20;4.90;99.90
51867;DHT22;52862;52.504;13.480;2023-02-01T04:08:48;5.10;99.90
51867;DHT22;52862;52.504;13.480;2023-02-01T04:11:14;5.30;99.90
51867;DHT22;52862;52.504;13.480;2023-02-01T04:13:41;5.00;99.90
51867;DHT22;52862;52.504;13.480;2023-02-01T04:16:08;4.30;99.90
51867;DHT22;52862;52.504;13.480;2023-02-01T04:18:35;5.30;99.90
51867;DHT22;52862;52.504;13.480;2023-02-01T04:21:06;5.30;99.90
51867;DHT22;52862;52.504;13.480;2023-02-01T04:23:33;5.40;99.90
51867;DHT22;52862;52.504;13.480;2023-02-01T04:26:01;5.30;99.90
51867;DHT22;52862;52.504;13.480;2023-02-01T04:28:29;5.30;99.90
51867;DHT22;52862;52.504;13.480;2023-02-01T04:30:55;5.10;99.90
51867;DHT22;52862;52.504;13.480;2023-02-01T04:33:22;5.70;99.90
51867;DHT22;52862;52.504;13.480;2023-02-01T04:35:49;5.60;99.90
51867;DHT22;52862;52.504;13.480;2023-02-01T04:38:16;5.40;99.90
51867;DHT22;52862;52.504;13.480;2023-02-01T04:40:43;5.50;99.90
51867;DHT22;52862;52.504;13.480;2023-02-01T04:43:10;5.70;99.90
51867;DHT22;52862;52.504;13.480;2023-02-01T04:45:37;5.60;99.90
51867;DHT22;52862;52.504;13.480;2023-02-01T04:48:04;5.50;99.90
51867;DHT22;52862;52.504;13.480;2023-02-01T04:50:31;5.50;99.90
51867;DHT22;52862;52.504;13.480;2023-02-01T04:52:57;5.60;99.90
51867;DHT22;52862;52.504;13.480;2023-02-01T04:55:24;5.60;99.90
51867;DHT22;52862;52.504;13.480;2023-02-01T04:57:50;5.70;99.90
51867;DHT22;52862;52.504;13.480;2023-02-01T05:00:18;5.60;99.90
51867;DHT22;52862;52.504;13.480;2023-02-01T05:02:45;5.60;99.90
51867;DHT22;52862;52.504;13.480;2023-02-01T05:05:12;5.30;99.90
51867;DHT22;52862;52.504;13.480;2023-02-01T05:07:38;5.60;99.90
51867;DHT22;52862;52.504;13.480;2023-02-01T05:10:06;5.60;99.90
51867;DHT22;52862;52.504;13.480;2023-02-01T05:12:33;5.60;99.90
51867;DHT22;52862;52.504;13.480;2023-02-01T05:15:18;5.90;99.90
51867;DHT22;52862;52.504;13.480;2023-02-01T05:17:45;5.70;99.90
51867;DHT22;52862;52.504;13.480;2023-02-01T05:20:12;5.70;99.90
51867;DHT22;52862;52.504;13.480;2023-02-01T05:22:38;5.70;99.90
51867;DHT22;52862;52.504;13.480;2023-02-01T05:25:05;5.90;99.90
51867;DHT22;52862;52.504;13.480;2023-02-01T05:27:34;5.70;99.90
51867;DHT22;52862;52.504;13.480;2023-02-01T05:30:01;5.70;99.90
51867;DHT22;52862;52.504;13.480;2023-02-01T05:32:28;5.90;99.90
51867;DHT22;52862;52.504;13.480;2023-02-01T05:34:55;7.10;99.90
51867;DHT22;52862;52.504;13.480;2023-02-01T05:37:22;5.90;99.90
51867;DHT22;52862;52.504;13.480;2023-02-01T05:39:48;5.80;99.90
51867;DHT22;52862;52.504;13.480;2023-02-01T05:42:15;5.70;99.90
51867;DHT22;52862;52.504;13.480;2023-02-01T05:44:42;5.80;99.90
51867;DHT22;52862;52.504;13.480;2023-02-01T05:47:08;5.80;99.90
51867;DHT22;52862;52.504;13.480;2023-02-01T05:49:36;5.70;99.90
51867;DHT22;52862;52.504;13.480;2023-02-01T05:52:03;5.90;99.90
51867;DHT22;52862;52.504;13.480;2023-02-01T05:54:29;6.10;99.90
51867;DHT22;52862;52.504;13.480;2023-02-01T05:56:56;5.80;99.90
51867;DHT22;52862;52.504;13.480;2023-02-01T05:59:23;5.90;99.90
51867;DHT22;52862;52.504;13.480;2023-02-01T06:01:49;5.70;99.90
51867;DHT22;52862;52.504;13.480;2023-02-01T06:04:16;5.80;99.90
51867;DHT22;52862;52.504;13.480;2023-02-01T06:06:43;5.70;99.90
51867;DHT22;52862;52.504;13.480;2023-02-01T06:09:10;5.40;99.90
51867;DHT22;52862;52.504;13.480;2023-02-01T06:11:37;5.90;99.90
51867;DHT22;52862;52.504;13.480;2023-02-01T06:14:04;5.80;99.90
51867;DHT22;52862;52.504;13.480;2023-02-01T06:16:30;5.40;99.90
51867;DHT22;52862;52.504;13.480;2023-02-01T06:18:57;6.10;99.90
51867;DHT22;52862;52.504;13.480;2023-02-01T06:21:24;5.70;99.90
51867;DHT22;52862;52.504;13.480;2023-02-01T06:23:52;5.70;99.90
51867;DHT22;52862;52.504;13.480;2023-02-01T06:26:19;5.80;99.90
51867;DHT22;52862;52.504;13.480;2023-02-01T06:28:46;5.80;99.90
51867;DHT22;52862;52.504;13.480;2023-02-01T06:31:12;5.50;99.90
51867;DHT22;52862;52.504;13.480;2023-02-01T06:33:39;4.80;99.90
51867;DHT22;52862;52.504;13.480;2023-02-01T06:36:09;6.00;99.90
51867;DHT22;52862;52.504;13.480;2023-02-01T06:38:36;5.70;99.90
51867;DHT22;52862;52.504;13.480;2023-02-01T06:41:04;5.40;99.90
51867;DHT22;52862;52.504;13.480;2023-02-01T06:43:31;5.30;99.90
51867;DHT22;52862;52.504;13.480;2023-02-01T06:46:04;5.60;99.90
51867;DHT22;52862;52.504;13.480;2023-02-01T06:48:31;5.30;99.90
51867;DHT22;52862;52.504;13.480;2023-02-01T06:50:58;5.30;99.90
51867;DHT22;52862;52.504;13.480;2023-02-01T06:53:25;5.40;99.90
51867;DHT22;52862;52.504;13.480;2023-02-01T06:55:53;5.40;99.90
51867;DHT22;52862;52.504;13.480;2023-02-01T06:58:20;5.60;99.90
51867;DHT22;52862;52.504;13.480;2023-02-01T07:00:47;5.40;99.90
51867;DHT22;52862;52.504;13.480;2023-02-01T07:03:14;5.50;99.90
51867;DHT22;52862;52.504;13.480;2023-02-01T07:05:41;5.70;99.90
51867;DHT22;52862;52.504;13.480;2023-02-01T07:08:07;5.50;99.90
51867;DHT22;52862;52.504;13.480;2023-02-01T07:10:34;5.30;99.90
51867;DHT22;52862;52.504;13.480;2023-02-01T07:13:01;6.20;99.90
51867;DHT22;52862;52.504;13.480;2023-02-01T07:15:28;5.40;99.90
51867;DHT22;52862;52.504;13.480;2023-02-01T07:17:55;5.40;99.90
51867;DHT22;52862;52.504;13.480;2023-02-01T07:20:23;5.50;99.90
51867;DHT22;52862;52.504;13.480;2023-02-01T07:22:55;5.70;99.90
51867;DHT22;52862;52.504;13.480;2023-02-01T07:25:22;5.20;99.90
51867;DHT22;52862;52.504;13.480;2023-02-01T07:27:48;5.50;99.90
51867;DHT22;52862;52.504;13.480;2023-02-01T07:30:15;5.60;99.90
51867;DHT22;52862;52.504;13.480;2023-02-01T07:32:42;5.40;99.90
51867;DHT22;52862;52.504;13.480;2023-02-01T07:37:36;5.30;99.90
51867;DHT22;52862;52.504;13.480;2023-02-01T07:40:04;5.40;99.90
51867;DHT22;52862;52.504;13.480;2023-02-01T07:42:30;5.50;99.90
51867;DHT22;52862;52.504;13.480;2023-02-01T07:44:57;5.50;99.90
51867;DHT22;52862;52.504;13.480;2023-02-01T07:47:33;5.50;99.90
51867;DHT22;52862;52.504;13.480;2023-02-01T07:50:00;5.50;99.90
51867;DHT22;52862;52.504;13.480;2023-02-01T07:52:27;5.40;99.90
51867;DHT22;52862;52.504;13.480;2023-02-01T07:54:55;5.40;99.90
51867;DHT22;52862;52.504;13.480;2023-02-01T07:57:21;5.30;99.90
51867;DHT22;52862;52.504;13.480;2023-02-01T07:59:48;5.20;99.90
51867;DHT22;52862;52.504;13.480;2023-02-01T08:02:33;5.00;99.90
51867;DHT22;52862;52.504;13.480;2023-02-01T08:05:04;5.10;99.90
51867;DHT22;52862;52.504;13.480;2023-02-01T08:07:31;4.70;99.90
51867;DHT22;52862;52.504;13.480;2023-02-01T08:09:58;4.40;99.90
51867;DHT22;52862;52.504;13.480;2023-02-01T08:12:25;4.70;99.90
51867;DHT22;52862;52.504;13.480;2023-02-01T08:14:52;4.60;99.90
51867;DHT22;52862;52.504;13.480;2023-02-01T08:17:22;4.50;99.90
51867;DHT22;52862;52.504;13.480;2023-02-01T08:19:53;4.30;99.90
51867;DHT22;52862;52.504;13.480;2023-02-01T08:22:21;4.40;99.90
51867;DHT22;52862;52.504;13.480;2023-02-01T08:24:47;4.20;99.90
51867;DHT22;52862;52.504;13.480;2023-02-01T08:27:14;4.30;99.90
51867;DHT22;52862;52.504;13.480;2023-02-01T08:29:41;4.40;99.90
51867;DHT22;52862;52.504;13.480;2023-02-01T08:32:08;4.30;99.90
51867;DHT22;52862;52.504;13.480;2023-02-01T08:34:34;4.20;99.90
51867;DHT22;52862;52.504;13.480;2023-02-01T08:37:01;4.30;99.90
51867;DHT22;52862;52.504;13.480;2023-02-01T08:39:29;4.30;99.90
51867;DHT22;52862;52.504;13.480;2023-02-01T08:41:55;4.30;99.90
51867;DHT22;52862;52.504;13.480;2023-02-01T08:44:40;4.70;99.90
51867;DHT22;52862;52.504;13.480;2023-02-01T08:47:07;4.40;99.90
51867;DHT22;52862;52.504;13.480;2023-02-01T08:49:33;4.30;99.90
51867;DHT22;52862;52.504;13.480;2023-02-01T08:52:00;4.70;99.90
51867;DHT22;52862;52.504;13.480;2023-02-01T08:54:40;4.50;99.90
51867;DHT22;52862;52.504;13.480;2023-02-01T08:57:08;4.30;99.90
51867;DHT22;52862;52.504;13.480;2023-02-01T08:59:35;4.50;99.90
51867;DHT22;52862;52.504;13.480;2023-02-01T09:02:02;4.50;99.90
51867;DHT22;52862;52.504;13.480;2023-02-01T09:04:28;4.40;99.90
51867;DHT22;52862;52.504;13.480;2023-02-01T09:06:55;4.40;99.90
51867;DHT22;52862;52.504;13.480;2023-02-01T09:09:22;4.60;99.90
51867;DHT22;52862;52.504;13.480;2023-02-01T09:11:49;4.60;99.90
51867;DHT22;52862;52.504;13.480;2023-02-01T09:14:16;4.60;99.90
51867;DHT22;52862;52.504;13.480;2023-02-01T09:16:43;4.50;99.90
51867;DHT22;52862;52.504;13.480;2023-02-01T09:19:10;4.50;99.90
51867;DHT22;52862;52.504;13.480;2023-02-01T09:21:53;4.40;99.90
51867;DHT22;52862;52.504;13.480;2023-02-01T09:24:20;4.70;99.90
51867;DHT22;52862;52.504;13.480;2023-02-01T09:26:46;4.80;99.90
